Time,TemperatureF,DewpointF,PressureIn,WindDirection,WindDirectionDegrees,WindSpeedMPH,WindSpeedGustMPH,Humidity,HourlyPrecipIn,Conditions,Clouds,dailyrainin,SoftwareType,DateUTC
2013-05-03 00:01:00,35.6,22.3,30.35,East,90,5.9,6.9,58,0.00,CLR,,0.00,WeatherDisplay:10.37,2013-05-03 06:01:00,
2013-05-03 00:06:00,35.2,21.9,30.35,East,90,4.6,5.8,58,0.00,CLR,,0.00,WeatherDisplay:10.37,2013-05-03 06:06:00,
2013-05-03 00:11:00,34.9,22.4,30.35,ESE,112,3.8,4.7,60,0.00,CLR,,0.00,WeatherDisplay:10.37,2013-05-03 06:11:00,
2013-05-03 00:16:00,34.7,22.2,30.35,ESE,112,3.8,4.6,60,0.00,CLR,,0.00,WeatherDisplay:10.37,2013-05-03 06:16:00,
2013-05-03 00:21:00,34.2,22.5,30.35,NNE,22,3.9,4.6,62,0.00,CLR,,0.00,WeatherDisplay:10.37,2013-05-03 06:21:00,
2013-05-03 00:26:00,34.0,22.3,30.35,ESE,112,4.5,5.8,62,0.00,CLR,,0.00,WeatherDisplay:10.37,2013-05-03 06:26:00,
2013-05-03 00:31:00,33.8,22.5,30.35,East,90,4.0,5.8,63,0.00,CLR,,0.00,WeatherDisplay:10.37,2013-05-03 06:31:00,
2013-05-03 00:36:00,33.6,22.0,30.35,NE,45,3.7,4.6,62,0.00,CLR,,0.00,WeatherDisplay:10.37,2013-05-03 06:36:00,
2013-05-03 00:41:00,33.4,22.1,30.34,ESE,112,3.2,4.6,63,0.00,CLR,,0.00,WeatherDisplay:10.37,2013-05-03 06:41:00,
2013-05-03 00:46:00,33.3,21.7,30.34,ESE,112,4.2,5.3,62,0.00,CLR,,0.00,WeatherDisplay:10.37,2013-05-03 06:46:00,
2013-05-03 00:51:00,33.3,21.7,30.34,ESE,112,3.6,5.8,62,0.00,CLR,,0.00,WeatherDisplay:10.37,2013-05-03 06:51:00,
2013-05-03 00:56:00,33.1,21.9,30.34,ESE,112,3.9,4.6,63,0.00,CLR,,0.00,WeatherDisplay:10.37,2013-05-03 06:56:00,
2013-05-03 01:01:00,32.9,21.7,30.34,ESE,112,3.9,4.6,63,0.00,CLR,,0.00,WeatherDisplay:10.37,2013-05-03 07:01:00,
2013-05-03 01:06:00,32.9,21.7,30.34,ESE,112,3.9,5.8,63,0.00,CLR,,0.00,WeatherDisplay:10.37,2013-05-03 07:06:00,
2013-05-03 01:11:00,32.9,21.7,30.34,SE,135,3.6,5.8,63,0.00,CLR,,0.00,WeatherDisplay:10.37,2013-05-03 07:11:00,
2013-05-03 01:16:00,32.9,21.7,30.33,SE,135,5.3,6.3,63,0.00,CLR,,0.00,WeatherDisplay:10.37,2013-05-03 07:16:00,
2013-05-03 01:22:00,32.9,21.7,30.33,ESE,112,5.8,6.9,63,0.00,CLR,,0.00,WeatherDisplay:10.37,2013-05-03 07:22:00,
2013-05-03 01:27:00,32.9,21.7,30.33,ESE,112,5.8,5.8,63,0.00,CLR,,0.00,WeatherDisplay:10.37,2013-05-03 07:27:00,
2013-05-03 01:32:00,32.9,21.7,30.33,East,90,5.1,5.8,63,0.00,CLR,,0.00,WeatherDisplay:10.37,2013-05-03 07:32:00,
2013-05-03 01:37:00,32.7,21.5,30.33,SSE,158,5.5,6.9,63,0.00,CLR,,0.00,WeatherDisplay:10.37,2013-05-03 07:37:00,
2013-05-03 01:42:00,32.5,21.3,30.33,ENE,68,5.6,6.9,63,0.00,CLR,,0.00,WeatherDisplay:10.37,2013-05-03 07:42:00,
2013-05-03 01:47:00,32.5,21.3,30.33,ESE,112,7.0,7.0,63,0.00,CLR,,0.00,WeatherDisplay:10.37,2013-05-03 07:47:00,
2013-05-03 01:52:00,32.5,21.7,30.33,ESE,112,7.4,8.1,64,0.00,CLR,,0.00,WeatherDisplay:10.37,2013-05-03 07:52:00,
2013-05-03 01:57:00,32.5,21.7,30.32,ESE,112,6.1,8.1,64,0.00,CLR,,0.00,WeatherDisplay:10.37,2013-05-03 07:57:00,
2013-05-03 02:02:00,32.5,21.7,30.32,ESE,112,5.5,9.2,64,0.00,CLR,,0.00,WeatherDisplay:10.37,2013-05-03 08:02:00,
2013-05-03 02:07:00,32.4,21.2,30.32,East,90,5.6,5.8,63,0.00,CLR,,0.00,WeatherDisplay:10.37,2013-05-03 08:07:00,
2013-05-03 02:12:00,32.9,20.9,30.32,East,90,8.8,10.4,61,0.00,CLR,,0.00,WeatherDisplay:10.37,2013-05-03 08:12:00,
2013-05-03 02:17:00,33.1,20.7,30.32,SSE,158,6.3,8.3,60,0.00,CLR,,0.00,WeatherDisplay:10.37,2013-05-03 08:17:00,
2013-05-03 02:22:00,33.1,20.7,30.32,East,90,4.7,5.8,60,0.00,CLR,,0.00,WeatherDisplay:10.37,2013-05-03 08:22:00,
2013-05-03 02:27:00,32.9,20.9,30.32,ESE,112,5.1,6.8,61,0.00,CLR,,0.00,WeatherDisplay:10.37,2013-05-03 08:27:00,
2013-05-03 02:32:00,32.7,20.7,30.31,SE,135,5.0,8.1,61,0.00,CLR,,0.00,WeatherDisplay:10.37,2013-05-03 08:32:00,
2013-05-03 02:37:00,32.5,20.5,30.31,ESE,112,6.4,9.2,61,0.00,CLR,,0.00,WeatherDisplay:10.37,2013-05-03 08:37:00,
2013-05-03 02:42:00,32.4,20.4,30.31,East,90,5.0,9.2,61,0.00,CLR,,0.00,WeatherDisplay:10.37,2013-05-03 08:42:00,
2013-05-03 02:47:00,32.2,20.6,30.31,ENE,68,4.7,5.3,62,0.00,CLR,,0.00,WeatherDisplay:10.37,2013-05-03 08:47:00,
2013-05-03 02:52:00,32.0,20.4,30.31,ESE,112,4.1,4.6,62,0.00,CLR,,0.00,WeatherDisplay:10.37,2013-05-03 08:52:00,
2013-05-03 02:57:00,31.8,20.6,30.31,NE,45,5.6,8.1,63,0.00,CLR,,0.00,WeatherDisplay:10.37,2013-05-03 08:57:00,
2013-05-03 03:02:00,31.6,20.4,30.31,ESE,112,2.6,3.5,63,0.00,CLR,,0.00,WeatherDisplay:10.37,2013-05-03 09:02:00,
2013-05-03 03:07:00,31.1,21.1,30.31,NNE,22,2.6,4.2,66,0.00,CLR,,0.00,WeatherDisplay:10.37,2013-05-03 09:07:00,
2013-05-03 03:12:00,30.9,20.9,30.31,NE,45,3.8,4.6,66,0.00,CLR,,0.00,WeatherDisplay:10.37,2013-05-03 09:12:00,
2013-05-03 03:17:00,30.7,21.4,30.31,NE,45,2.4,4.6,68,0.00,CLR,,0.00,WeatherDisplay:10.37,2013-05-03 09:17:00,
2013-05-03 03:22:00,30.6,20.9,30.31,ESE,112,4.4,5.3,67,0.00,CLR,,0.00,WeatherDisplay:10.37,2013-05-03 09:22:00,
2013-05-03 03:27:00,30.4,20.7,30.31,ESE,112,4.5,4.6,67,0.00,CLR,,0.00,WeatherDisplay:10.37,2013-05-03 09:27:00,
2013-05-03 03:32:00,30.4,20.7,30.31,NE,45,4.2,6.9,67,0.00,CLR,,0.00,WeatherDisplay:10.37,2013-05-03 09:32:00,
2013-05-03 03:37:00,30.2,20.6,30.31,NE,45,4.5,4.6,67,0.00,CLR,,0.00,WeatherDisplay:10.37,2013-05-03 09:37:00,
2013-05-03 03:42:00,30.2,20.6,30.30,ENE,68,4.0,5.8,67,0.00,CLR,,0.00,WeatherDisplay:10.37,2013-05-03 09:42:00,
2013-05-03 03:47:00,30.2,20.6,30.30,East,90,4.1,4.6,67,0.00,CLR,,0.00,WeatherDisplay:10.37,2013-05-03 09:47:00,
2013-05-03 03:52:00,30.0,20.0,30.30,ESE,112,4.7,5.8,66,0.00,CLR,,0.00,WeatherDisplay:10.37,2013-05-03 09:52:00,
2013-05-03 03:57:00,30.0,20.4,30.30,ESE,112,3.0,3.5,67,0.00,CLR,,0.00,WeatherDisplay:10.37,2013-05-03 09:57:00,
2013-05-03 04:02:00,30.0,20.4,30.30,ENE,68,3.3,4.6,67,0.00,CLR,,0.00,WeatherDisplay:10.37,2013-05-03 10:02:00,
2013-05-03 04:07:00,30.0,20.0,30.29,SE,135,3.3,3.5,66,0.00,CLR,,0.00,WeatherDisplay:10.37,2013-05-03 10:07:00,
2013-05-03 04:12:00,30.0,20.7,30.29,NE,45,2.8,3.5,68,0.00,CLR,,0.00,WeatherDisplay:10.37,2013-05-03 10:12:00,
2013-05-03 04:17:00,30.0,20.7,30.29,East,90,3.4,4.6,68,0.00,CLR,,0.00,WeatherDisplay:10.37,2013-05-03 10:17:00,
2013-05-03 04:22:00,29.8,20.2,30.29,East,90,4.9,6.3,67,0.00,CLR,,0.00,WeatherDisplay:10.37,2013-05-03 10:22:00,
2013-05-03 04:27:00,29.8,20.5,30.29,East,90,3.0,3.5,68,0.00,CLR,,0.00,WeatherDisplay:10.37,2013-05-03 10:27:00,
2013-05-03 04:32:00,29.5,20.6,30.29,ESE,112,3.7,4.6,69,0.00,CLR,,0.00,WeatherDisplay:10.37,2013-05-03 10:32:00,
2013-05-03 04:37:00,29.3,20.0,30.29,ESE,112,4.1,5.8,68,0.00,CLR,,0.00,WeatherDisplay:10.37,2013-05-03 10:37:00,
2013-05-03 04:42:00,29.3,20.0,30.29,East,90,4.0,4.6,68,0.00,CLR,,0.00,WeatherDisplay:10.37,2013-05-03 10:42:00,
2013-05-03 04:47:00,29.1,19.8,30.29,East,90,4.7,4.7,68,0.00,CLR,,0.00,WeatherDisplay:10.37,2013-05-03 10:47:00,
2013-05-03 04:52:00,28.9,20.0,30.29,ESE,112,3.7,5.8,69,0.00,CLR,,0.00,WeatherDisplay:10.37,2013-05-03 10:52:00,
2013-05-03 04:57:00,28.9,19.7,30.29,ESE,112,4.7,5.8,68,0.00,CLR,,0.00,WeatherDisplay:10.37,2013-05-03 10:57:00,
2013-05-03 05:02:00,29.1,19.8,30.29,ESE,112,4.9,5.8,68,0.00,CLR,,0.00,WeatherDisplay:10.37,2013-05-03 11:02:00,
2013-05-03 05:07:00,29.1,19.8,30.29,ESE,112,4.5,6.9,68,0.00,CLR,,0.00,WeatherDisplay:10.37,2013-05-03 11:07:00,
2013-05-03 05:12:00,28.8,19.6,30.29,ESE,112,4.8,5.3,68,0.00,CLR,,0.00,WeatherDisplay:10.37,2013-05-03 11:12:00,
2013-05-03 05:17:00,28.8,19.9,30.28,ESE,112,4.3,5.3,69,0.00,CLR,,0.00,WeatherDisplay:10.37,2013-05-03 11:17:00,
2013-05-03 05:22:00,28.8,19.9,30.28,ESE,112,4.4,5.8,69,0.00,CLR,,0.00,WeatherDisplay:10.37,2013-05-03 11:22:00,
2013-05-03 05:27:00,28.2,19.3,30.28,ESE,112,3.0,4.2,69,0.00,CLR,,0.00,WeatherDisplay:10.37,2013-05-03 11:27:00,
2013-05-03 05:32:00,28.0,19.5,30.28,East,90,4.2,5.8,70,0.00,CLR,,0.00,WeatherDisplay:10.37,2013-05-03 11:32:00,
2013-05-03 05:37:00,27.9,19.4,30.28,SE,135,2.7,3.5,70,0.00,CLR,,0.00,WeatherDisplay:10.37,2013-05-03 11:37:00,
2013-05-03 05:42:00,27.9,19.7,30.28,SSE,158,2.7,3.2,71,0.00,CLR,,0.00,WeatherDisplay:10.37,2013-05-03 11:42:00,
2013-05-03 05:47:00,27.7,19.5,30.28,SSE,158,3.4,4.6,71,0.00,CLR,,0.00,WeatherDisplay:10.37,2013-05-03 11:47:00,
2013-05-03 05:53:00,27.7,19.5,30.28,East,90,2.5,3.5,71,0.00,CLR,,0.00,WeatherDisplay:10.37,2013-05-03 11:53:00,
2013-05-03 05:58:00,27.9,19.7,30.28,SE,135,3.0,3.5,71,0.00,CLR,,0.00,WeatherDisplay:10.37,2013-05-03 11:58:00,
2013-05-03 06:03:00,27.9,19.7,30.28,ENE,68,2.2,2.3,71,0.00,CLR,,0.00,WeatherDisplay:10.37,2013-05-03 12:03:00,
2013-05-03 06:08:00,27.9,19.7,30.28,ENE,68,2.3,2.7,71,0.00,CLR,,0.00,WeatherDisplay:10.37,2013-05-03 12:08:00,
2013-05-03 06:13:00,27.9,19.7,30.28,ESE,112,2.2,2.3,71,0.00,CLR,,0.00,WeatherDisplay:10.37,2013-05-03 12:13:00,
2013-05-03 06:18:00,28.0,19.8,30.28,NE,45,1.5,2.3,71,0.00,CLR,,0.00,WeatherDisplay:10.37,2013-05-03 12:18:00,
2013-05-03 06:23:00,28.6,20.4,30.28,ENE,68,1.4,2.3,71,0.00,CLR,,0.00,WeatherDisplay:10.37,2013-05-03 12:23:00,
2013-05-03 06:28:00,29.5,20.9,30.28,ENE,68,2.3,2.3,70,0.00,CLR,,0.00,WeatherDisplay:10.37,2013-05-03 12:28:00,
2013-05-03 06:33:00,30.4,21.4,30.28,ENE,68,2.7,3.5,69,0.00,CLR,,0.00,WeatherDisplay:10.37,2013-05-03 12:33:00,
2013-05-03 06:38:00,31.8,21.7,30.28,East,90,2.6,3.5,66,0.00,CLR,,0.00,WeatherDisplay:10.37,2013-05-03 12:38:00,
2013-05-03 06:43:00,32.7,21.1,30.28,ENE,68,2.1,2.3,62,0.00,CLR,,0.00,WeatherDisplay:10.37,2013-05-03 12:43:00,
2013-05-03 06:48:00,33.6,21.2,30.28,SSE,158,4.7,6.9,60,0.00,CLR,,0.00,WeatherDisplay:10.37,2013-05-03 12:48:00,
2013-05-03 06:53:00,34.3,21.4,30.27,South,180,4.9,5.8,59,0.00,CLR,,0.00,WeatherDisplay:10.37,2013-05-03 12:53:00,
2013-05-03 06:58:00,34.7,21.4,30.27,ESE,112,4.8,5.8,58,0.00,CLR,,0.00,WeatherDisplay:10.37,2013-05-03 12:58:00,
2013-05-03 07:03:00,35.2,20.6,30.27,SE,135,9.2,10.4,55,0.00,CLR,,0.00,WeatherDisplay:10.37,2013-05-03 13:03:00,
2013-05-03 07:08:00,36.0,20.9,30.27,SSE,158,6.6,6.9,54,0.00,CLR,,0.00,WeatherDisplay:10.37,2013-05-03 13:08:00,
2013-05-03 07:13:00,36.7,20.7,30.27,SE,135,9.8,12.7,52,0.00,CLR,,0.00,WeatherDisplay:10.37,2013-05-03 13:13:00,
2013-05-03 07:18:00,36.9,20.9,30.27,SSE,158,9.1,10.4,52,0.00,CLR,,0.00,WeatherDisplay:10.37,2013-05-03 13:18:00,
2013-05-03 07:23:00,37.8,21.7,30.27,ENE,68,5.2,8.3,52,0.00,CLR,,0.00,WeatherDisplay:10.37,2013-05-03 13:23:00,
2013-05-03 07:28:00,38.1,21.5,30.27,ESE,112,8.3,8.3,51,0.00,CLR,,0.00,WeatherDisplay:10.37,2013-05-03 13:28:00,
2013-05-03 07:33:00,38.1,21.5,30.27,SE,135,5.8,5.8,51,0.00,CLR,,0.00,WeatherDisplay:10.37,2013-05-03 13:33:00,
2013-05-03 07:38:00,38.8,21.3,30.27,ESE,112,9.2,15.0,49,0.00,CLR,,0.00,WeatherDisplay:10.37,2013-05-03 13:38:00,
2013-05-03 07:43:00,39.2,21.6,30.27,ESE,112,6.4,9.4,49,0.00,CLR,,0.00,WeatherDisplay:10.37,2013-05-03 13:43:00,
2013-05-03 07:48:00,39.7,21.6,30.27,ESE,112,10.5,12.7,48,0.00,CLR,,0.00,WeatherDisplay:10.37,2013-05-03 13:48:00,
2013-05-03 07:53:00,40.5,21.8,30.27,ESE,112,7.3,12.4,47,0.00,CLR,,0.00,WeatherDisplay:10.37,2013-05-03 13:53:00,
2013-05-03 07:58:00,40.3,21.1,30.27,East,90,6.9,11.5,46,0.00,CLR,,0.00,WeatherDisplay:10.37,2013-05-03 13:58:00,
2013-05-03 08:03:00,40.5,21.3,30.27,SSE,158,9.3,11.5,46,0.00,CLR,,0.00,WeatherDisplay:10.37,2013-05-03 14:03:00,
2013-05-03 08:08:00,40.6,20.9,30.27,ESE,112,10.7,13.8,45,0.00,CLR,,0.00,WeatherDisplay:10.37,2013-05-03 14:08:00,
2013-05-03 08:13:00,41.0,21.3,30.27,ESE,112,10.8,12.7,45,0.00,CLR,,0.00,WeatherDisplay:10.37,2013-05-03 14:13:00,
2013-05-03 08:18:00,41.7,21.9,30.26,South,180,8.2,10.4,45,0.00,CLR,,0.00,WeatherDisplay:10.37,2013-05-03 14:18:00,
2013-05-03 08:23:00,41.0,21.8,30.26,SSE,158,8.4,8.4,46,0.00,CLR,,0.00,WeatherDisplay:10.37,2013-05-03 14:23:00,
2013-05-03 08:28:00,41.0,21.8,30.26,ESE,112,10.8,14.0,46,0.00,CLR,,0.00,WeatherDisplay:10.37,2013-05-03 14:28:00,
2013-05-03 08:33:00,41.5,22.2,30.26,South,180,10.9,11.5,46,0.00,CLR,,0.00,WeatherDisplay:10.37,2013-05-03 14:33:00,
2013-05-03 08:38:00,42.3,23.0,30.26,SSE,158,9.9,11.5,46,0.00,CLR,,0.00,WeatherDisplay:10.37,2013-05-03 14:38:00,
2013-05-03 08:43:00,42.1,22.3,30.25,ESE,112,13.3,13.8,45,0.00,CLR,,0.00,WeatherDisplay:10.37,2013-05-03 14:43:00,
2013-05-03 08:48:00,42.4,23.1,30.25,ESE,112,11.6,13.8,46,0.00,CLR,,0.00,WeatherDisplay:10.37,2013-05-03 14:48:00,
2013-05-03 08:53:00,43.3,22.8,30.25,SE,135,10.5,13.8,44,0.00,CLR,,0.00,WeatherDisplay:10.37,2013-05-03 14:53:00,
2013-05-03 08:58:00,44.1,23.6,30.25,SSE,158,8.2,9.2,44,0.00,CLR,,0.00,WeatherDisplay:10.37,2013-05-03 14:58:00,
2013-05-03 09:03:00,43.9,23.4,30.24,SSE,158,8.8,10.4,44,0.00,CLR,,0.00,WeatherDisplay:10.37,2013-05-03 15:03:00,
2013-05-03 09:08:00,44.8,23.6,30.24,SE,135,9.8,12.7,43,0.00,CLR,,0.00,WeatherDisplay:10.37,2013-05-03 15:08:00,
2013-05-03 09:13:00,44.8,23.6,30.24,SSE,158,10.9,10.9,43,0.00,CLR,,0.00,WeatherDisplay:10.37,2013-05-03 15:13:00,
2013-05-03 09:18:00,45.5,23.7,30.24,SSE,158,8.3,10.9,42,0.00,CLR,,0.00,WeatherDisplay:10.37,2013-05-03 15:18:00,
2013-05-03 09:23:00,45.5,23.1,30.24,ESE,112,11.2,11.5,41,0.00,CLR,,0.00,WeatherDisplay:10.37,2013-05-03 15:23:00,
2013-05-03 09:28:00,46.2,23.8,30.24,SSE,158,8.1,10.4,41,0.00,CLR,,0.00,WeatherDisplay:10.37,2013-05-03 15:28:00,
2013-05-03 09:33:00,46.9,23.8,30.24,ESE,112,7.7,11.5,40,0.00,CLR,,0.00,WeatherDisplay:10.37,2013-05-03 15:33:00,
2013-05-03 09:38:00,47.1,24.0,30.24,SSE,158,8.5,10.4,40,0.00,CLR,,0.00,WeatherDisplay:10.37,2013-05-03 15:38:00,
2013-05-03 09:44:00,47.7,23.9,30.23,SE,135,9.6,10.4,39,0.00,CLR,,0.00,WeatherDisplay:10.37,2013-05-03 15:44:00,
2013-05-03 09:49:00,48.6,24.1,30.23,SSE,158,9.4,12.7,38,0.00,CLR,,0.00,WeatherDisplay:10.37,2013-05-03 15:49:00,
2013-05-03 09:54:00,48.9,25.0,30.23,SSE,158,10.1,11.5,39,0.00,CLR,,0.00,WeatherDisplay:10.37,2013-05-03 15:54:00,
2013-05-03 09:59:00,48.9,24.4,30.23,ESE,112,9.9,12.4,38,0.00,CLR,,0.00,WeatherDisplay:10.37,2013-05-03 15:59:00,
2013-05-03 10:04:00,49.1,23.9,30.23,SSE,158,9.2,10.4,37,0.00,CLR,,0.00,WeatherDisplay:10.37,2013-05-03 16:04:00,
2013-05-03 10:09:00,49.1,23.9,30.23,SE,135,10.4,10.4,37,0.00,CLR,,0.00,WeatherDisplay:10.37,2013-05-03 16:09:00,
2013-05-03 10:14:00,50.9,25.5,30.23,SSE,158,8.2,9.9,37,0.00,CLR,,0.00,WeatherDisplay:10.37,2013-05-03 16:14:00,
2013-05-03 10:19:00,50.5,24.5,30.22,SSE,158,11.0,11.5,36,0.00,CLR,,0.00,WeatherDisplay:10.37,2013-05-03 16:19:00,
2013-05-03 10:24:00,50.5,24.5,30.22,South,180,5.8,8.1,36,0.00,CLR,,0.00,WeatherDisplay:10.37,2013-05-03 16:24:00,
2013-05-03 10:29:00,51.3,24.5,30.23,South,180,6.5,10.9,35,0.00,CLR,,0.00,WeatherDisplay:10.37,2013-05-03 16:29:00,
2013-05-03 10:34:00,52.2,24.6,30.23,SSE,158,7.6,10.4,34,0.00,CLR,,0.00,WeatherDisplay:10.37,2013-05-03 16:34:00,
2013-05-03 10:39:00,52.2,24.6,30.23,SSE,158,8.2,10.4,34,0.00,CLR,,0.00,WeatherDisplay:10.37,2013-05-03 16:39:00,
2013-05-03 10:44:00,53.1,24.7,30.22,ESE,112,9.8,15.0,33,0.00,CLR,,0.00,WeatherDisplay:10.37,2013-05-03 16:44:00,
2013-05-03 10:49:00,53.4,25.0,30.22,ESE,112,10.7,10.7,33,0.00,CLR,,0.00,WeatherDisplay:10.37,2013-05-03 16:49:00,
2013-05-03 10:54:00,52.0,24.5,30.22,SE,135,7.7,12.7,34,0.00,CLR,,0.00,WeatherDisplay:10.37,2013-05-03 16:54:00,
2013-05-03 10:59:00,53.2,24.8,30.22,ESE,112,12.2,12.4,33,0.00,CLR,,0.00,WeatherDisplay:10.37,2013-05-03 16:59:00,
2013-05-03 11:04:00,53.2,24.8,30.21,ESE,112,9.2,12.7,33,0.00,CLR,,0.00,WeatherDisplay:10.37,2013-05-03 17:04:00,
2013-05-03 11:09:00,53.1,24.7,30.21,South,180,9.3,11.5,33,0.00,CLR,,0.00,WeatherDisplay:10.37,2013-05-03 17:09:00,
2013-05-03 11:14:00,54.5,25.2,30.21,SSE,158,9.4,13.8,32,0.00,CLR,,0.00,WeatherDisplay:10.37,2013-05-03 17:14:00,
2013-05-03 11:19:00,55.0,25.6,30.21,SE,135,10.3,13.0,32,0.00,CLR,,0.00,WeatherDisplay:10.37,2013-05-03 17:19:00,
2013-05-03 11:24:00,54.0,24.8,30.21,SSE,158,13.2,13.8,32,0.00,CLR,,0.00,WeatherDisplay:10.37,2013-05-03 17:24:00,
2013-05-03 11:29:00,55.4,24.4,30.20,ESE,112,12.1,13.8,30,0.00,CLR,,0.00,WeatherDisplay:10.37,2013-05-03 17:29:00,
2013-05-03 11:34:00,55.2,24.3,30.20,SSE,158,11.0,11.5,30,0.00,CLR,,0.00,WeatherDisplay:10.37,2013-05-03 17:34:00,
2013-05-03 11:39:00,55.0,23.3,30.20,ESE,112,11.6,13.0,29,0.00,CLR,,0.00,WeatherDisplay:10.37,2013-05-03 17:39:00,
2013-05-03 11:44:00,55.4,24.4,30.19,ESE,112,8.2,16.1,30,0.00,CLR,,0.00,WeatherDisplay:10.37,2013-05-03 17:44:00,
2013-05-03 11:49:00,55.6,23.8,30.19,SE,135,14.5,17.3,29,0.00,CLR,,0.00,WeatherDisplay:10.37,2013-05-03 17:49:00,
2013-05-03 11:54:00,55.9,24.1,30.19,SE,135,10.4,10.4,29,0.00,CLR,,0.00,WeatherDisplay:10.37,2013-05-03 17:54:00,
2013-05-03 11:59:00,55.9,24.1,30.19,SE,135,10.6,12.4,29,0.00,CLR,,0.00,WeatherDisplay:10.37,2013-05-03 17:59:00,
2013-05-03 12:04:00,56.7,23.0,30.18,ESE,112,12.8,13.8,27,0.00,CLR,,0.00,WeatherDisplay:10.37,2013-05-03 18:04:00,
2013-05-03 12:09:00,57.4,24.5,30.18,SSE,158,9.4,10.4,28,0.00,CLR,,0.00,WeatherDisplay:10.37,2013-05-03 18:09:00,
2013-05-03 12:14:00,57.4,24.5,30.18,SE,135,12.8,15.5,28,0.00,CLR,,0.00,WeatherDisplay:10.37,2013-05-03 18:14:00,
2013-05-03 12:19:00,57.9,25.0,30.17,SE,135,10.8,12.7,28,0.00,CLR,,0.00,WeatherDisplay:10.37,2013-05-03 18:19:00,
2013-05-03 12:24:00,57.0,23.3,30.17,ESE,112,7.9,9.2,27,0.00,CLR,,0.00,WeatherDisplay:10.37,2013-05-03 18:24:00,
2013-05-03 12:29:00,57.4,21.8,30.17,SSE,158,11.2,11.5,25,0.00,CLR,,0.00,WeatherDisplay:10.37,2013-05-03 18:29:00,
2013-05-03 12:34:00,57.7,23.0,30.17,ESE,112,10.2,11.4,26,0.00,CLR,,0.00,WeatherDisplay:10.37,2013-05-03 18:34:00,
2013-05-03 12:39:00,57.6,22.9,30.17,SE,135,12.8,15.0,26,0.00,CLR,,0.00,WeatherDisplay:10.37,2013-05-03 18:39:00,
2013-05-03 12:44:00,57.4,22.8,30.17,South,180,8.1,10.4,26,0.00,CLR,,0.00,WeatherDisplay:10.37,2013-05-03 18:44:00,
2013-05-03 12:49:00,59.0,25.0,30.17,ESE,112,9.2,10.4,27,0.00,CLR,,0.00,WeatherDisplay:10.37,2013-05-03 18:49:00,
2013-05-03 12:54:00,58.8,24.9,30.16,SE,135,12.6,13.8,27,0.00,CLR,,0.00,WeatherDisplay:10.37,2013-05-03 18:54:00,
2013-05-03 12:59:00,58.5,23.7,30.16,ESE,112,12.7,13.8,26,0.00,CLR,,0.00,WeatherDisplay:10.37,2013-05-03 18:59:00,
2013-05-03 13:04:00,58.6,23.8,30.16,ESE,112,10.2,15.0,26,0.00,CLR,,0.00,WeatherDisplay:10.37,2013-05-03 19:04:00,
2013-05-03 13:09:00,59.5,24.5,30.16,ESE,112,7.3,8.1,26,0.00,CLR,,0.00,WeatherDisplay:10.37,2013-05-03 19:09:00,
2013-05-03 13:14:00,59.0,24.1,30.16,ESE,112,12.7,15.0,26,0.00,CLR,,0.00,WeatherDisplay:10.37,2013-05-03 19:14:00,
2013-05-03 13:19:00,58.8,23.0,30.16,ESE,112,9.7,13.8,25,0.00,CLR,,0.00,WeatherDisplay:10.37,2013-05-03 19:19:00,
2013-05-03 13:24:00,58.1,22.4,30.16,SSE,158,7.0,11.5,25,0.00,CLR,,0.00,WeatherDisplay:10.37,2013-05-03 19:24:00,
2013-05-03 13:29:00,59.2,23.4,30.15,SE,135,8.1,10.9,25,0.00,CLR,,0.00,WeatherDisplay:10.37,2013-05-03 19:29:00,
2013-05-03 13:34:00,58.8,23.0,30.15,SE,135,9.5,12.7,25,0.00,CLR,,0.00,WeatherDisplay:10.37,2013-05-03 19:34:00,
2013-05-03 13:39:00,59.7,22.8,30.15,SE,135,13.6,14.5,24,0.00,CLR,,0.00,WeatherDisplay:10.37,2013-05-03 19:39:00,
2013-05-03 13:44:00,59.4,23.5,30.15,ESE,112,8.2,10.4,25,0.00,CLR,,0.00,WeatherDisplay:10.37,2013-05-03 19:44:00,
2013-05-03 13:49:00,60.6,24.5,30.15,East,90,9.8,11.5,25,0.00,CLR,,0.00,WeatherDisplay:10.37,2013-05-03 19:49:00,
2013-05-03 13:54:00,59.0,23.2,30.15,ESE,112,10.5,15.0,25,0.00,CLR,,0.00,WeatherDisplay:10.37,2013-05-03 19:54:00,
2013-05-03 13:59:00,59.7,23.8,30.15,ESE,112,9.1,13.5,25,0.00,CLR,,0.00,WeatherDisplay:10.37,2013-05-03 19:59:00,
2013-05-03 14:04:00,59.0,23.2,30.15,ESE,112,6.1,11.5,25,0.00,CLR,,0.00,WeatherDisplay:10.37,2013-05-03 20:04:00,
2013-05-03 14:09:00,60.1,22.1,30.15,East,90,4.3,9.2,23,0.00,CLR,,0.00,WeatherDisplay:10.37,2013-05-03 20:09:00,
2013-05-03 14:14:00,61.9,23.6,30.15,East,90,9.0,10.4,23,0.00,CLR,,0.00,WeatherDisplay:10.37,2013-05-03 20:14:00,
2013-05-03 14:19:00,60.8,23.7,30.15,ESE,112,11.2,11.5,24,0.00,CLR,,0.00,WeatherDisplay:10.37,2013-05-03 20:19:00,
2013-05-03 14:24:00,60.6,23.6,30.15,SSE,158,7.9,11.5,24,0.00,CLR,,0.00,WeatherDisplay:10.37,2013-05-03 20:24:00,
2013-05-03 14:29:00,61.5,25.3,30.15,SE,135,8.6,10.9,25,0.00,CLR,,0.00,WeatherDisplay:10.37,2013-05-03 20:29:00,
2013-05-03 14:34:00,60.4,24.4,30.15,ESE,112,6.8,9.4,25,0.00,CLR,,0.00,WeatherDisplay:10.37,2013-05-03 20:34:00,
2013-05-03 14:39:00,59.9,23.9,30.15,ESE,112,10.1,11.5,25,0.00,CLR,,0.00,WeatherDisplay:10.37,2013-05-03 20:39:00,
2013-05-03 14:44:00,60.8,25.7,30.15,SE,135,6.0,6.9,26,0.00,CLR,,0.00,WeatherDisplay:10.37,2013-05-03 20:44:00,
2013-05-03 14:49:00,59.9,23.0,30.15,ESE,112,4.0,6.9,24,0.00,CLR,,0.00,WeatherDisplay:10.37,2013-05-03 20:49:00,
2013-05-03 14:54:00,61.7,24.5,30.14,ESE,112,10.3,11.5,24,0.00,CLR,,0.00,WeatherDisplay:10.37,2013-05-03 20:54:00,
2013-05-03 14:59:00,60.3,23.3,30.14,ESE,112,4.8,6.9,24,0.00,CLR,,0.00,WeatherDisplay:10.37,2013-05-03 20:59:00,
2013-05-03 15:04:00,62.1,25.8,30.14,ESE,112,11.8,13.8,25,0.00,CLR,,0.00,WeatherDisplay:10.37,2013-05-03 21:04:00,
2013-05-03 15:09:00,60.4,23.4,30.14,SE,135,12.1,12.7,24,0.00,CLR,,0.00,WeatherDisplay:10.37,2013-05-03 21:09:00,
2013-05-03 15:14:00,59.5,22.6,30.14,SE,135,4.5,4.6,24,0.00,CLR,,0.00,WeatherDisplay:10.37,2013-05-03 21:14:00,
2013-05-03 15:19:00,61.3,26.1,30.14,SSE,158,8.3,9.4,26,0.00,CLR,,0.00,WeatherDisplay:10.37,2013-05-03 21:19:00,
2013-05-03 15:24:00,61.3,24.2,30.14,ESE,112,4.1,5.3,24,0.00,CLR,,0.00,WeatherDisplay:10.37,2013-05-03 21:24:00,
2013-05-03 15:30:00,60.4,24.4,30.13,SE,135,7.2,9.2,25,0.00,CLR,,0.00,WeatherDisplay:10.37,2013-05-03 21:30:00,
2013-05-03 15:35:00,59.7,22.8,30.13,South,180,3.8,6.9,24,0.00,CLR,,0.00,WeatherDisplay:10.37,2013-05-03 21:35:00,
2013-05-03 15:40:00,61.3,24.2,30.13,ESE,112,9.9,11.5,24,0.00,CLR,,0.00,WeatherDisplay:10.37,2013-05-03 21:40:00,
2013-05-03 15:45:00,61.0,23.9,30.13,ESE,112,10.4,12.4,24,0.00,CLR,,0.00,WeatherDisplay:10.37,2013-05-03 21:45:00,
2013-05-03 15:50:00,60.8,23.7,30.13,NE,45,6.6,9.4,24,0.00,CLR,,0.00,WeatherDisplay:10.37,2013-05-03 21:50:00,
2013-05-03 15:55:00,61.9,26.6,30.12,ESE,112,7.7,10.4,26,0.00,CLR,,0.00,WeatherDisplay:10.37,2013-05-03 21:55:00,
2013-05-03 16:00:00,60.8,24.7,30.12,ESE,112,6.3,8.8,25,0.00,CLR,,0.00,WeatherDisplay:10.37,2013-05-03 22:00:00,
2013-05-03 16:05:00,61.0,23.9,30.12,ESE,112,9.9,11.5,24,0.00,CLR,,0.00,WeatherDisplay:10.37,2013-05-03 22:05:00,
2013-05-03 16:10:00,61.7,25.5,30.12,ESE,112,9.3,11.4,25,0.00,CLR,,0.00,WeatherDisplay:10.37,2013-05-03 22:10:00,
2013-05-03 16:15:00,60.4,23.4,30.12,SE,135,10.2,10.9,24,0.00,CLR,,0.00,WeatherDisplay:10.37,2013-05-03 22:15:00,
2013-05-03 16:20:00,60.3,24.3,30.12,East,90,2.3,5.8,25,0.00,CLR,,0.00,WeatherDisplay:10.37,2013-05-03 22:20:00,
2013-05-03 16:25:00,60.3,23.3,30.12,SE,135,5.0,6.9,24,0.00,CLR,,0.00,WeatherDisplay:10.37,2013-05-03 22:25:00,
2013-05-03 16:30:00,61.2,25.1,30.12,SE,135,7.2,7.2,25,0.00,CLR,,0.00,WeatherDisplay:10.37,2013-05-03 22:30:00,
2013-05-03 16:35:00,61.2,25.1,30.12,ESE,112,9.5,10.9,25,0.00,CLR,,0.00,WeatherDisplay:10.37,2013-05-03 22:35:00,
2013-05-03 16:40:00,61.5,25.3,30.12,ESE,112,5.2,6.9,25,0.00,CLR,,0.00,WeatherDisplay:10.37,2013-05-03 22:40:00,
2013-05-03 16:45:00,60.8,24.7,30.12,ESE,112,11.0,11.5,25,0.00,CLR,,0.00,WeatherDisplay:10.37,2013-05-03 22:45:00,
2013-05-03 16:50:00,60.6,24.5,30.12,SSE,158,10.7,10.9,25,0.00,CLR,,0.00,WeatherDisplay:10.37,2013-05-03 22:50:00,
2013-05-03 16:55:00,59.5,24.5,30.12,ESE,112,5.2,8.1,26,0.00,CLR,,0.00,WeatherDisplay:10.37,2013-05-03 22:55:00,
2013-05-03 17:00:00,60.4,26.2,30.12,SSE,158,6.2,9.2,27,0.00,CLR,,0.00,WeatherDisplay:10.37,2013-05-03 23:00:00,
2013-05-03 17:05:00,60.3,26.1,30.12,SE,135,7.6,13.8,27,0.00,CLR,,0.00,WeatherDisplay:10.37,2013-05-03 23:05:00,
2013-05-03 17:10:00,60.3,26.1,30.12,SE,135,8.2,11.5,27,0.00,CLR,,0.00,WeatherDisplay:10.37,2013-05-03 23:10:00,
2013-05-03 17:15:00,60.3,26.1,30.12,SSE,158,7.0,10.4,27,0.00,CLR,,0.00,WeatherDisplay:10.37,2013-05-03 23:15:00,
2013-05-03 17:20:00,60.4,26.2,30.12,ESE,112,7.5,8.1,27,0.00,CLR,,0.00,WeatherDisplay:10.37,2013-05-03 23:20:00,
2013-05-03 17:25:00,60.3,26.1,30.12,SE,135,10.2,12.7,27,0.00,CLR,,0.00,WeatherDisplay:10.37,2013-05-03 23:25:00,
2013-05-03 17:30:00,60.6,27.3,30.12,ESE,112,8.6,10.4,28,0.00,CLR,,0.00,WeatherDisplay:10.37,2013-05-03 23:30:00,
2013-05-03 17:35:00,60.1,26.0,30.12,ESE,112,11.0,13.8,27,0.00,CLR,,0.00,WeatherDisplay:10.37,2013-05-03 23:35:00,
2013-05-03 17:40:00,59.4,26.2,30.12,East,90,8.2,11.5,28,0.00,CLR,,0.00,WeatherDisplay:10.37,2013-05-03 23:40:00,
2013-05-03 17:45:00,59.0,25.9,30.12,SSE,158,10.6,16.1,28,0.00,CLR,,0.00,WeatherDisplay:10.37,2013-05-03 23:45:00,
2013-05-03 17:50:00,58.8,25.7,30.12,ESE,112,8.8,12.7,28,0.00,CLR,,0.00,WeatherDisplay:10.37,2013-05-03 23:50:00,
2013-05-03 17:55:00,58.6,25.6,30.12,SE,135,11.3,13.8,28,0.00,CLR,,0.00,WeatherDisplay:10.37,2013-05-03 23:55:00,
2013-05-03 18:00:00,58.5,25.5,30.12,ESE,112,12.0,12.7,28,0.00,CLR,,0.00,WeatherDisplay:10.37,2013-05-04 00:00:00,
2013-05-03 18:05:00,58.5,25.5,30.13,ESE,112,8.4,11.5,28,0.00,CLR,,0.00,WeatherDisplay:10.37,2013-05-04 00:05:00,
2013-05-03 18:10:00,58.3,26.1,30.13,ESE,112,8.4,10.4,29,0.00,CLR,,0.00,WeatherDisplay:10.37,2013-05-04 00:10:00,
2013-05-03 18:15:00,58.1,26.0,30.13,East,90,7.6,8.3,29,0.00,CLR,,0.00,WeatherDisplay:10.37,2013-05-04 00:15:00,
2013-05-03 18:20:00,57.6,25.5,30.13,ESE,112,12.0,13.8,29,0.00,CLR,,0.00,WeatherDisplay:10.37,2013-05-04 00:20:00,
2013-05-03 18:25:00,57.6,26.4,30.13,ESE,112,7.5,8.1,30,0.00,CLR,,0.00,WeatherDisplay:10.37,2013-05-04 00:25:00,
2013-05-03 18:30:00,57.6,27.2,30.13,ESE,112,7.9,10.4,31,0.00,CLR,,0.00,WeatherDisplay:10.37,2013-05-04 00:30:00,
2013-05-03 18:35:00,57.6,26.4,30.13,ESE,112,9.9,11.5,30,0.00,CLR,,0.00,WeatherDisplay:10.37,2013-05-04 00:35:00,
2013-05-03 18:40:00,57.4,26.2,30.13,ESE,112,10.1,10.4,30,0.00,CLR,,0.00,WeatherDisplay:10.37,2013-05-04 00:40:00,
2013-05-03 18:45:00,57.2,26.0,30.13,ESE,112,8.8,9.2,30,0.00,CLR,,0.00,WeatherDisplay:10.37,2013-05-04 00:45:00,
2013-05-03 18:50:00,57.0,26.6,30.13,SE,135,9.4,10.4,31,0.00,CLR,,0.00,WeatherDisplay:10.37,2013-05-04 00:50:00,
2013-05-03 18:55:00,56.3,25.2,30.14,SSE,158,11.2,13.8,30,0.00,CLR,,0.00,WeatherDisplay:10.37,2013-05-04 00:55:00,
2013-05-03 19:00:00,55.9,25.7,30.14,ESE,112,9.1,10.4,31,0.00,CLR,,0.00,WeatherDisplay:10.37,2013-05-04 01:00:00,
2013-05-03 19:05:00,55.6,25.4,30.14,East,90,8.0,10.4,31,0.00,CLR,,0.00,WeatherDisplay:10.37,2013-05-04 01:05:00,
2013-05-03 19:10:00,55.4,26.0,30.14,ESE,112,6.3,8.1,32,0.00,CLR,,0.00,WeatherDisplay:10.37,2013-05-04 01:10:00,
2013-05-03 19:15:00,55.0,26.4,30.14,ESE,112,6.1,10.4,33,0.00,CLR,,0.00,WeatherDisplay:10.37,2013-05-04 01:15:00,
2013-05-03 19:20:00,54.7,26.1,30.14,East,90,6.5,8.1,33,0.00,CLR,,0.00,WeatherDisplay:10.37,2013-05-04 01:20:00,
2013-05-03 19:25:00,54.1,25.6,30.14,ESE,112,6.0,6.9,33,0.00,CLR,,0.00,WeatherDisplay:10.37,2013-05-04 01:25:00,
2013-05-03 19:30:00,53.8,26.1,30.14,ESE,112,6.3,8.1,34,0.00,CLR,,0.00,WeatherDisplay:10.37,2013-05-04 01:30:00,
2013-05-03 19:35:00,53.2,25.5,30.14,ESE,112,6.7,8.1,34,0.00,CLR,,0.00,WeatherDisplay:10.37,2013-05-04 01:35:00,
2013-05-03 19:40:00,52.9,26.0,30.14,ESE,112,7.0,8.3,35,0.00,CLR,,0.00,WeatherDisplay:10.37,2013-05-04 01:40:00,
2013-05-03 19:45:00,52.3,25.4,30.14,SE,135,6.8,8.1,35,0.00,CLR,,0.00,WeatherDisplay:10.37,2013-05-04 01:45:00,
2013-05-03 19:50:00,51.4,26.0,30.14,SE,135,4.5,5.8,37,0.00,CLR,,0.00,WeatherDisplay:10.37,2013-05-04 01:50:00,
2013-05-03 19:55:00,50.7,25.3,30.15,SE,135,5.5,6.9,37,0.00,CLR,,0.00,WeatherDisplay:10.37,2013-05-04 01:55:00,
2013-05-03 20:00:00,50.0,25.4,30.15,East,90,4.0,4.6,38,0.00,CLR,,0.00,WeatherDisplay:10.37,2013-05-04 02:00:00,
2013-05-03 20:05:00,49.3,25.4,30.15,ESE,112,4.2,4.6,39,0.00,CLR,,0.00,WeatherDisplay:10.37,2013-05-04 02:05:00,
2013-05-03 20:10:00,48.9,25.0,30.15,ESE,112,4.8,5.8,39,0.00,CLR,,0.00,WeatherDisplay:10.37,2013-05-04 02:10:00,
2013-05-03 20:15:00,48.4,25.2,30.15,ESE,112,4.2,4.6,40,0.00,CLR,,0.00,WeatherDisplay:10.37,2013-05-04 02:15:00,
2013-05-03 20:20:00,47.7,25.1,30.15,East,90,4.1,4.7,41,0.00,CLR,,0.00,WeatherDisplay:10.37,2013-05-04 02:20:00,
2013-05-03 20:25:00,46.9,25.0,30.15,East,90,4.3,4.6,42,0.00,CLR,,0.00,WeatherDisplay:10.37,2013-05-04 02:25:00,
2013-05-03 20:30:00,46.4,24.5,30.16,East,90,4.3,4.7,42,0.00,CLR,,0.00,WeatherDisplay:10.37,2013-05-04 02:30:00,
2013-05-03 20:35:00,45.9,24.6,30.16,ESE,112,3.6,4.6,43,0.00,CLR,,0.00,WeatherDisplay:10.37,2013-05-04 02:35:00,
2013-05-03 20:40:00,45.5,24.3,30.16,East,90,3.2,3.5,43,0.00,CLR,,0.00,WeatherDisplay:10.37,2013-05-04 02:40:00,
2013-05-03 20:45:00,44.8,23.6,30.16,ESE,112,3.7,3.7,43,0.00,CLR,,0.00,WeatherDisplay:10.37,2013-05-04 02:45:00,
2013-05-03 20:50:00,44.6,24.0,30.16,ESE,112,3.9,4.6,44,0.00,CLR,,0.00,WeatherDisplay:10.37,2013-05-04 02:50:00,
2013-05-03 20:55:00,44.2,23.6,30.17,ESE,112,4.3,4.7,44,0.00,CLR,,0.00,WeatherDisplay:10.37,2013-05-04 02:55:00,
2013-05-03 21:00:00,43.7,23.7,30.17,East,90,4.1,4.6,45,0.00,CLR,,0.00,WeatherDisplay:10.37,2013-05-04 03:00:00,
2013-05-03 21:05:00,43.0,24.1,30.17,East,90,4.2,4.6,47,0.00,CLR,,0.00,WeatherDisplay:10.37,2013-05-04 03:05:00,
2013-05-03 21:10:00,42.4,23.6,30.17,East,90,4.1,4.6,47,0.00,CLR,,0.00,WeatherDisplay:10.37,2013-05-04 03:10:00,
2013-05-03 21:15:00,42.3,24.0,30.17,ESE,112,3.6,3.6,48,0.00,CLR,,0.00,WeatherDisplay:10.37,2013-05-04 03:15:00,
2013-05-03 21:20:00,42.3,23.5,30.17,ESE,112,4.6,5.8,47,0.00,CLR,,0.00,WeatherDisplay:10.37,2013-05-04 03:20:00,
2013-05-03 21:25:00,42.3,23.5,30.17,ESE,112,5.7,6.9,47,0.00,CLR,,0.00,WeatherDisplay:10.37,2013-05-04 03:25:00,
2013-05-03 21:30:00,42.3,23.5,30.17,ESE,112,5.4,5.8,47,0.00,CLR,,0.00,WeatherDisplay:10.37,2013-05-04 03:30:00,
2013-05-03 21:35:00,41.9,23.1,30.17,NE,45,4.2,4.7,47,0.00,CLR,,0.00,WeatherDisplay:10.37,2013-05-04 03:35:00,
2013-05-03 21:41:00,41.4,23.6,30.18,NNE,22,4.1,5.8,49,0.00,CLR,,0.00,WeatherDisplay:10.37,2013-05-04 03:41:00,
2013-05-03 21:46:00,40.8,23.6,30.18,East,90,4.6,4.7,50,0.00,CLR,,0.00,WeatherDisplay:10.37,2013-05-04 03:46:00,
2013-05-03 21:51:00,40.6,23.9,30.18,ESE,112,3.8,4.7,51,0.00,CLR,,0.00,WeatherDisplay:10.37,2013-05-04 03:51:00,
2013-05-03 21:56:00,40.5,23.8,30.18,ENE,68,2.7,3.5,51,0.00,CLR,,0.00,WeatherDisplay:10.37,2013-05-04 03:56:00,
2013-05-03 22:01:00,40.1,22.9,30.18,SE,135,4.0,4.7,50,0.00,CLR,,0.00,WeatherDisplay:10.37,2013-05-04 04:01:00,
2013-05-03 22:06:00,40.1,22.9,30.18,East,90,4.1,4.6,50,0.00,CLR,,0.00,WeatherDisplay:10.37,2013-05-04 04:06:00,
2013-05-03 22:11:00,39.9,22.7,30.18,East,90,3.3,3.5,50,0.00,CLR,,0.00,WeatherDisplay:10.37,2013-05-04 04:11:00,
2013-05-03 22:16:00,39.6,22.9,30.18,ESE,112,3.1,4.2,51,0.00,CLR,,0.00,WeatherDisplay:10.37,2013-05-04 04:16:00,
2013-05-03 22:21:00,39.2,23.5,30.18,East,90,3.5,4.6,53,0.00,CLR,,0.00,WeatherDisplay:10.37,2013-05-04 04:21:00,
2013-05-03 22:26:00,38.8,24.4,30.18,ESE,112,3.0,3.5,56,0.00,CLR,,0.00,WeatherDisplay:10.37,2013-05-04 04:26:00,
2013-05-03 22:31:00,38.5,24.1,30.18,ESE,112,2.7,2.7,56,0.00,CLR,,0.00,WeatherDisplay:10.37,2013-05-04 04:31:00,
2013-05-03 22:36:00,38.5,24.1,30.18,ESE,112,3.2,3.5,56,0.00,CLR,,0.00,WeatherDisplay:10.37,2013-05-04 04:36:00,
2013-05-03 22:41:00,38.3,23.1,30.18,ESE,112,4.3,4.6,54,0.00,CLR,,0.00,WeatherDisplay:10.37,2013-05-04 04:41:00,
2013-05-03 22:46:00,38.3,22.2,30.18,East,90,4.0,4.6,52,0.00,CLR,,0.00,WeatherDisplay:10.37,2013-05-04 04:46:00,
2013-05-03 22:51:00,38.3,22.2,30.18,ESE,112,2.9,3.5,52,0.00,CLR,,0.00,WeatherDisplay:10.37,2013-05-04 04:51:00,
2013-05-03 22:56:00,38.1,22.0,30.18,ENE,68,2.5,2.7,52,0.00,CLR,,0.00,WeatherDisplay:10.37,2013-05-04 04:56:00,
2013-05-03 23:01:00,37.9,21.8,30.18,ESE,112,2.5,2.7,52,0.00,CLR,,0.00,WeatherDisplay:10.37,2013-05-04 05:01:00,
2013-05-03 23:06:00,37.6,22.0,30.18,ESE,112,2.5,2.7,53,0.00,CLR,,0.00,WeatherDisplay:10.37,2013-05-04 05:06:00,
2013-05-03 23:11:00,37.4,22.3,30.18,East,90,2.1,3.5,54,0.00,CLR,,0.00,WeatherDisplay:10.37,2013-05-04 05:11:00,
2013-05-03 23:16:00,37.0,22.7,30.19,ESE,112,2.5,3.5,56,0.00,CLR,,0.00,WeatherDisplay:10.37,2013-05-04 05:16:00,
2013-05-03 23:21:00,36.9,22.2,30.19,NE,45,2.3,2.3,55,0.00,CLR,,0.00,WeatherDisplay:10.37,2013-05-04 05:21:00,
2013-05-03 23:26:00,36.5,22.3,30.19,ENE,68,2.5,3.5,56,0.00,CLR,,0.00,WeatherDisplay:10.37,2013-05-04 05:26:00,
2013-05-03 23:31:00,36.3,21.2,30.19,East,90,3.4,4.6,54,0.00,CLR,,0.00,WeatherDisplay:10.37,2013-05-04 05:31:00,
2013-05-03 23:36:00,36.0,23.4,30.19,NE,45,2.7,3.5,60,0.00,CLR,,0.00,WeatherDisplay:10.37,2013-05-04 05:36:00,
2013-05-03 23:41:00,35.6,22.7,30.19,East,90,2.1,3.5,59,0.00,CLR,,0.00,WeatherDisplay:10.37,2013-05-04 05:41:00,
2013-05-03 23:46:00,35.2,23.1,30.19,East,90,2.8,3.5,61,0.00,CLR,,0.00,WeatherDisplay:10.37,2013-05-04 05:46:00,
2013-05-03 23:51:00,35.1,22.6,30.19,ESE,112,2.6,3.5,60,0.00,CLR,,0.00,WeatherDisplay:10.37,2013-05-04 05:51:00,
2013-05-03 23:56:00,34.9,21.6,30.20,ESE,112,3.0,3.7,58,0.00,CLR,,0.00,WeatherDisplay:10.37,2013-05-04 05:56:00,